Time;durP1;ratioP1;P1;durP2;ratioP2;P2;SDS_P1;SDS_P2;PMS_P1;PMS_P2;Temp;Humidity;BMP_temperature;BMP_pressure;BME280_temperature;BME280_humidity;BME280_pressure;Samples;Min_cycle;Max_cycle;Signal;HPM_P1;HPM_P2
2021/06/09 00:00:20;;;;;;;7.63;6.93;;;;;;;19.77;56.16;99377.00;5112396;28;20024;-71
2021/06/09 00:02:45;;;;;;;11.57;6.47;;;;;;;19.83;55.89;99380.28;5104093;27;20097;-71
2021/06/09 00:05:11;;;;;;;6.45;5.85;;;;;;;19.84;55.24;99371.34;5112115;28;20031;-70
2021/06/09 00:07:37;;;;;;;9.35;6.60;;;;;;;19.85;54.80;99370.16;5113335;28;20081;-72
2021/06/09 00:10:04;;;;;;;6.63;5.93;;;;;;;19.70;54.73;99369.28;5113274;28;20024;-72
2021/06/09 00:12:29;;;;;;;9.02;6.63;;;;;;;19.62;54.97;99378.97;5113309;28;20080;-69
2021/06/09 00:14:55;;;;;;;9.25;6.80;;;;;;;19.55;55.67;99364.75;5113819;28;20020;-72
2021/06/09 00:17:20;;;;;;;8.95;7.15;;;;;;;19.44;56.73;99364.72;5113865;28;20038;-70
2021/06/09 00:19:45;;;;;;;8.55;6.25;;;;;;;19.57;56.45;99363.16;5113162;27;20023;-72
2021/06/09 00:22:11;;;;;;;9.50;6.45;;;;;;;19.51;56.72;99356.25;5112346;28;20032;-70
2021/06/09 00:24:38;;;;;;;16.00;8.02;;;;;;;19.58;56.66;99358.31;5111733;28;20027;-70
2021/06/09 00:27:04;;;;;;;11.57;6.65;;;;;;;19.50;56.56;99358.25;5112138;28;20028;-71
2021/06/09 00:29:29;;;;;;;9.13;7.22;;;;;;;19.48;57.09;99366.34;5111810;28;20074;-72
2021/06/09 00:31:55;;;;;;;13.90;8.40;;;;;;;19.09;58.39;99364.16;5113579;28;20034;-71
2021/06/09 00:34:20;;;;;;;10.80;8.65;;;;;;;18.89;59.41;99375.72;5113157;27;20024;-72
2021/06/09 00:36:46;;;;;;;12.82;9.30;;;;;;;18.52;60.59;99374.66;5113222;27;20073;-71
2021/06/09 00:39:12;;;;;;;13.15;8.85;;;;;;;18.11;62.00;99371.84;5112920;28;20524;-69
2021/06/09 00:41:37;;;;;;;10.57;8.55;;;;;;;18.05;61.95;99379.06;5113070;28;20031;-72
2021/06/09 00:44:05;;;;;;;9.48;8.45;;;;;;;17.96;62.15;99370.84;5111496;28;20066;-70
2021/06/09 00:46:36;;;;;;;10.35;8.68;;;;;;;18.03;62.98;99375.78;5111579;28;20031;-69
2021/06/09 00:49:03;;;;;;;10.20;8.23;;;;;;;17.96;63.09;99382.16;5111591;28;20117;-72
2021/06/09 00:51:29;;;;;;;10.30;8.15;;;;;;;18.02;63.11;99382.63;5112251;28;20043;-70
2021/06/09 00:53:58;;;;;;;13.73;8.30;;;;;;;18.07;62.87;99383.09;5111415;28;20297;-71
2021/06/09 00:56:25;;;;;;;12.52;8.23;;;;;;;18.19;62.55;99384.03;5112542;28;20417;-70
2021/06/09 00:58:52;;;;;;;12.02;8.98;;;;;;;18.55;61.55;99377.91;5111256;28;20088;-70
2021/06/09 01:01:19;;;;;;;10.98;8.35;;;;;;;18.73;60.85;99378.03;5112752;28;20445;-71
2021/06/09 01:03:45;;;;;;;11.32;8.98;;;;;;;18.79;60.10;99376.44;5112365;28;20015;-71
2021/06/09 01:06:11;;;;;;;13.20;8.60;;;;;;;18.73;60.00;99373.16;5112637;28;20392;-70
2021/06/09 01:08:38;;;;;;;14.13;9.10;;;;;;;18.59;60.23;99365.41;5112398;28;20026;-70
2021/06/09 01:11:06;;;;;;;14.88;8.00;;;;;;;18.29;61.57;99372.00;5111060;28;20049;-72
2021/06/09 01:13:31;;;;;;;12.63;8.90;;;;;;;18.29;62.06;99363.50;5112286;28;20027;-70
2021/06/09 01:15:58;;;;;;;13.57;8.00;;;;;;;18.35;61.78;99376.13;5112222;28;20035;-72
2021/06/09 01:18:24;;;;;;;12.93;7.90;;;;;;;18.41;61.54;99361.59;5112214;28;20409;-72
2021/06/09 01:20:50;;;;;;;11.85;7.85;;;;;;;18.60;60.90;99358.53;5111936;28;20040;-71
2021/06/09 01:23:16;;;;;;;13.18;8.07;;;;;;;18.71;59.89;99364.25;5110915;28;20023;-70
2021/06/09 01:25:42;;;;;;;13.45;7.65;;;;;;;18.50;60.49;99370.56;5110644;28;20450;-71
2021/06/09 01:28:08;;;;;;;15.82;8.57;;;;;;;18.46;60.63;99359.22;5111994;28;20023;-70
2021/06/09 01:30:36;;;;;;;12.63;9.35;;;;;;;18.46;60.86;99359.22;5112049;28;20069;-70
2021/06/09 01:33:02;;;;;;;15.05;9.02;;;;;;;18.33;61.22;99364.34;5111793;28;20102;-71
2021/06/09 01:35:27;;;;;;;11.57;8.35;;;;;;;18.23;61.68;99362.25;5110570;28;20085;-70
2021/06/09 01:37:53;;;;;;;15.80;9.30;;;;;;;18.07;62.38;99366.13;5110262;28;20032;-70
2021/06/09 01:40:23;;;;;;;11.40;10.27;;;;;;;18.07;62.48;99366.13;5111949;28;20055;-71
2021/06/09 01:42:49;;;;;;;14.00;9.52;;;;;;;18.02;62.53;99371.28;5111643;28;20035;-71
2021/06/09 01:45:17;;;;;;;16.17;9.10;;;;;;;17.87;63.17;99362.66;5110722;28;20084;-71
2021/06/09 01:47:43;;;;;;;11.45;8.38;;;;;;;17.71;63.66;99362.09;5111500;28;20039;-69
2021/06/09 01:50:12;;;;;;;11.20;9.13;;;;;;;17.68;63.77;99360.84;5111461;28;20053;-71
2021/06/09 01:52:39;;;;;;;17.48;8.80;;;;;;;17.63;64.27;99358.38;5111615;28;20036;-72
2021/06/09 01:55:07;;;;;;;15.07;9.32;;;;;;;17.85;63.80;99358.59;5109940;28;20034;-72
2021/06/09 01:57:33;;;;;;;13.18;9.05;;;;;;;17.83;63.71;99361.81;5110342;28;20042;-70
2021/06/09 01:59:59;;;;;;;10.13;9.02;;;;;;;18.04;63.43;99366.91;5111330;28;20032;-71
2021/06/09 02:02:25;;;;;;;12.10;9.25;;;;;;;18.19;62.24;99364.22;5111845;28;20081;-70
2021/06/09 02:04:50;;;;;;;16.23;9.48;;;;;;;18.20;62.00;99360.19;5111407;28;20124;-72
2021/06/09 02:07:16;;;;;;;13.13;9.18;;;;;;;18.18;62.25;99360.59;5109749;28;20023;-70
2021/06/09 02:09:42;;;;;;;12.20;8.88;;;;;;;18.24;61.74;99359.00;5111452;27;20419;-70
2021/06/09 02:12:08;;;;;;;12.77;9.43;;;;;;;18.18;62.01;99360.59;5111675;28;20035;-72
2021/06/09 02:14:36;;;;;;;12.88;9.52;;;;;;;18.12;62.60;99361.34;5111042;28;20035;-72
2021/06/09 02:17:04;;;;;;;13.10;9.75;;;;;;;18.18;62.84;99359.75;5111569;28;20157;-72
2021/06/09 02:19:30;;;;;;;12.23;9.90;;;;;;;18.11;62.46;99360.50;5109706;28;20028;-70
2021/06/09 02:21:56;;;;;;;23.90;10.65;;;;;;;17.92;63.24;99358.69;5111512;28;20051;-70
2021/06/09 02:24:22;;;;;;;16.40;10.30;;;;;;;17.78;64.14;99357.31;5110857;28;20036;-72
2021/06/09 02:26:49;;;;;;;26.42;10.98;;;;;;;17.79;64.64;99360.94;5111448;28;20035;-72
2021/06/09 02:29:15;;;;;;;18.63;10.60;;;;;;;17.99;63.29;99360.75;5110832;28;20087;-72
2021/06/09 02:31:52;;;;;;;18.65;10.68;;;;;;;18.00;62.91;99360.38;5109809;28;20486;-70
2021/06/09 02:34:20;;;;;;;12.52;10.00;;;;;;;17.90;63.08;99359.06;5109476;28;20497;-69
2021/06/09 02:36:49;;;;;;;15.63;10.95;;;;;;;17.82;63.29;99363.81;5109737;28;20134;-70
2021/06/09 02:39:14;;;;;;;17.70;11.25;;;;;;;17.61;64.13;99352.25;5110769;28;20071;-72
2021/06/09 02:41:40;;;;;;;21.88;10.27;;;;;;;17.70;64.08;99364.09;5110909;28;20504;-72
2021/06/09 02:44:07;;;;;;;21.00;9.90;;;;;;;17.85;63.33;99362.25;5109546;28;20023;-70
2021/06/09 02:46:54;;;;;;;19.17;10.13;;;;;;;17.68;63.37;99363.66;5110790;28;20024;-72
2021/06/09 02:49:22;;;;;;;16.45;10.00;;;;;;;17.30;64.16;99362.78;5110813;28;20027;-70
2021/06/09 02:51:55;;;;;;;20.55;12.30;;;;;;;17.23;64.54;99369.16;5110635;28;20069;-71
2021/06/09 02:54:40;;;;;;;22.08;10.60;;;;;;;17.04;65.23;99372.94;5110783;28;20513;-69
2021/06/09 02:57:20;;;;;;;21.70;11.30;;;;;;;17.01;65.34;99377.34;5111221;28;20032;-70
2021/06/09 02:59:58;;;;;;;20.13;13.43;;;;;;;16.89;66.16;99372.69;5110813;28;20015;-70
2021/06/09 03:02:49;;;;;;;18.23;10.85;;;;;;;16.79;66.81;99374.16;5098355;28;20094;-69
2021/06/09 03:05:27;;;;;;;19.00;12.07;;;;;;;16.78;66.79;99372.53;5108992;28;20019;-70
2021/06/09 03:08:05;;;;;;;13.90;10.52;;;;;;;16.66;67.31;99381.22;5109265;28;20024;-70
2021/06/09 03:10:46;;;;;;;16.70;10.27;;;;;;;16.64;67.96;99384.41;5108946;28;20055;-70
2021/06/09 03:15:09;;;;;;;13.98;9.88;;;;;;;16.68;67.69;99384.47;5110601;28;20023;-72
2021/06/09 03:16:33;;;;;;;18.77;11.00;;;;;;;16.78;67.18;99389.47;5108973;28;20128;-69
2021/06/09 03:19:09;;;;;;;11.65;9.60;;;;;;;16.74;67.56;99399.91;5113394;28;20034;-72
2021/06/09 03:21:47;;;;;;;16.80;10.63;;;;;;;16.70;67.60;99391.38;5114807;28;20030;-71
2021/06/09 03:24:52;;;;;;;14.07;9.07;;;;;;;16.72;67.88;99395.81;5113022;28;20027;-71
2021/06/09 03:27:43;;;;;;;14.30;8.77;;;;;;;16.70;67.96;99393.38;5051393;28;20626;-72
2021/06/09 03:30:12;;;;;;;15.50;8.88;;;;;;;16.79;68.23;99390.31;5100882;28;20493;-70
2021/06/09 03:33:02;;;;;;;9.98;8.98;;;;;;;16.96;67.85;99389.75;5114045;28;20020;-71
2021/06/09 03:35:50;;;;;;;13.88;9.75;;;;;;;16.98;67.55;99378.88;5114349;28;20103;-71
2021/06/09 03:38:30;;;;;;;20.77;10.05;;;;;;;16.97;68.19;99384.94;5113878;28;20046;-70
2021/06/09 03:41:00;;;;;;;26.23;10.38;;;;;;;17.09;68.25;99387.56;5113199;28;20500;-71
2021/06/09 03:43:29;;;;;;;35.55;10.68;;;;;;;17.16;68.01;99389.66;5112719;28;20174;-70
2021/06/09 03:45:56;;;;;;;15.60;10.65;;;;;;;17.25;67.81;99381.72;5114164;28;20031;-70
2021/06/09 03:48:25;;;;;;;14.55;9.02;;;;;;;17.34;67.42;99383.44;5113976;28;20515;-70
2021/06/09 03:50:54;;;;;;;15.10;9.93;;;;;;;17.38;67.54;99381.50;5112708;28;20050;-70
2021/06/09 03:53:20;;;;;;;15.13;10.05;;;;;;;17.33;67.14;99376.97;5113529;28;20191;-70
2021/06/09 03:55:47;;;;;;;10.85;9.68;;;;;;;17.37;67.05;99380.66;5113269;28;20059;-70
2021/06/09 03:58:16;;;;;;;14.80;9.43;;;;;;;17.47;66.65;99379.16;5110528;28;20389;-70
2021/06/09 04:00:44;;;;;;;13.50;9.50;;;;;;;17.48;66.27;99368.69;5112859;28;20111;-69
2021/06/09 04:03:10;;;;;;;11.77;9.15;;;;;;;17.53;66.20;99383.28;5110358;27;20028;-70
2021/06/09 04:05:39;;;;;;;13.68;9.00;;;;;;;17.47;66.29;99379.16;5106801;27;20508;-70
2021/06/09 04:08:08;;;;;;;18.23;10.57;;;;;;;17.46;66.37;99382.38;5109547;28;20024;-72
2021/06/09 04:10:36;;;;;;;16.55;10.02;;;;;;;17.53;66.36;99376.81;5106570;28;20062;-71
2021/06/09 04:13:01;;;;;;;10.93;9.82;;;;;;;17.57;65.94;99386.19;5113656;28;20523;-71
2021/06/09 04:15:29;;;;;;;15.68;9.27;;;;;;;17.63;65.92;99381.78;5112156;28;20035;-72
2021/06/09 04:17:57;;;;;;;14.43;10.18;;;;;;;17.63;66.38;99393.09;5113264;28;20026;-71
2021/06/09 04:20:26;;;;;;;16.60;9.75;;;;;;;17.77;65.72;99391.63;5113316;28;20031;-72
2021/06/09 04:22:52;;;;;;;15.27;9.40;;;;;;;17.75;65.81;99394.03;5113175;28;20054;-71
2021/06/09 04:25:19;;;;;;;16.38;11.02;;;;;;;17.45;66.46;99394.91;5112763;28;20035;-70
2021/06/09 04:27:45;;;;;;;12.68;10.27;;;;;;;17.19;67.64;99391.72;5104410;28;20070;-72
2021/06/09 04:30:11;;;;;;;14.68;9.63;;;;;;;17.05;68.41;99392.31;5111608;28;20052;-72
2021/06/09 04:32:52;;;;;;;19.52;10.27;;;;;;;17.17;68.41;99388.47;5106881;28;20409;-72
2021/06/09 04:35:18;;;;;;;;;;;;;;;17.18;68.72;99390.09;5111371;28;20012;-72
2021/06/09 04:37:43;;;;;;;15.88;10.45;;;;;;;17.28;68.36;99390.63;5111354;27;19911;-72
2021/06/09 04:40:23;;;;;;;26.30;11.73;;;;;;;17.34;68.90;99391.91;5109374;28;20078;-76
2021/06/09 04:42:51;;;;;;;26.65;11.55;;;;;;;17.51;68.45;99382.88;5100764;28;20032;-74
2021/06/09 04:45:18;;;;;;;38.40;12.82;;;;;;;17.66;68.16;99392.31;5101593;28;20031;-75
2021/06/09 04:47:45;;;;;;;22.25;11.38;;;;;;;17.83;67.69;99390.09;5101658;28;20035;-75
2021/06/09 04:50:11;;;;;;;21.17;11.20;;;;;;;17.96;67.35;99387.81;5099037;28;20110;-74
2021/06/09 04:52:37;;;;;;;26.23;10.52;;;;;;;18.06;67.20;99387.16;5095741;28;20028;-72
2021/06/09 04:55:04;;;;;;;26.65;11.00;;;;;;;18.09;67.13;99385.56;5098529;28;20046;-77
2021/06/09 04:57:29;;;;;;;13.55;10.65;;;;;;;18.10;66.46;99393.69;5095685;28;20032;-77
2021/06/09 04:59:54;;;;;;;13.95;9.63;;;;;;;18.08;66.07;99395.25;5096613;28;20043;-76
2021/06/09 05:02:20;;;;;;;16.90;9.63;;;;;;;18.18;66.34;99393.72;5096288;28;20066;-70
2021/06/09 05:04:46;;;;;;;19.38;10.18;;;;;;;18.18;66.50;99390.91;5093416;28;20093;-70
2021/06/09 05:07:12;;;;;;;29.15;10.77;;;;;;;18.28;65.18;99393.03;5099449;28;20023;-69
2021/06/09 05:09:37;;;;;;;14.73;8.68;;;;;;;18.43;63.65;99393.16;5113407;28;20076;-73
2021/06/09 05:12:06;;;;;;;12.82;8.70;;;;;;;18.51;63.50;99406.19;5106994;28;20122;-70
2021/06/09 05:15:09;;;;;;;9.90;8.40;;;;;;;18.47;61.89;99411.00;5108785;28;20088;-71
2021/06/09 05:17:43;;;;;;;13.05;8.77;;;;;;;18.40;61.21;99410.94;5095671;28;20052;-72
2021/06/09 05:20:11;;;;;;;12.05;8.68;;;;;;;18.26;61.83;99415.25;5110110;28;20379;-71
2021/06/09 05:22:42;;;;;;;11.80;9.35;;;;;;;18.33;62.09;99418.13;5108570;28;20035;-70
2021/06/09 05:25:08;;;;;;;27.42;10.38;;;;;;;18.46;62.64;99410.19;5108792;28;20107;-71
2021/06/09 05:27:37;;;;;;;15.65;9.43;;;;;;;18.48;62.07;99407.78;5110040;28;20046;-69
2021/06/09 05:30:05;;;;;;;15.40;9.30;;;;;;;18.40;61.55;99411.72;5109148;28;20122;-75
2021/06/09 05:32:31;;;;;;;11.80;9.25;;;;;;;18.32;62.24;99413.69;5110349;28;20035;-68
2021/06/09 05:34:58;;;;;;;17.20;10.25;;;;;;;18.42;62.79;99425.50;5111842;28;20405;-78
2021/06/09 05:37:24;;;;;;;19.02;10.68;;;;;;;18.45;62.20;99413.41;5112092;28;20469;-71
2021/06/09 05:39:51;;;;;;;34.45;11.25;;;;;;;18.35;62.52;99420.59;5111884;28;20574;-76
2021/06/09 05:42:17;;;;;;;23.02;11.95;;;;;;;18.48;63.03;99418.28;5112344;28;20035;-71
2021/06/09 05:44:44;;;;;;;16.27;11.50;;;;;;;18.43;63.25;99416.63;5111554;28;20573;-72
2021/06/09 05:47:10;;;;;;;17.52;10.85;;;;;;;18.35;62.69;99412.09;5110717;28;20130;-77
2021/06/09 05:49:36;;;;;;;25.33;12.30;;;;;;;18.43;63.12;99412.97;5111557;28;20103;-72
2021/06/09 05:52:02;;;;;;;20.65;13.77;;;;;;;18.48;63.54;99413.44;5110077;28;20060;-72
2021/06/09 05:54:34;;;;;;;22.25;13.45;;;;;;;18.57;62.83;99415.94;5111283;28;20493;-72
2021/06/09 05:57:02;;;;;;;15.55;11.60;;;;;;;18.42;62.53;99417.84;5110290;28;20466;-78
2021/06/09 05:59:28;;;;;;;15.98;12.00;;;;;;;18.40;63.24;99408.09;5110331;28;20020;-78
2021/06/09 06:01:53;;;;;;;14.68;11.65;;;;;;;18.55;63.19;99404.19;5110139;28;20032;-73
2021/06/09 06:04:20;;;;;;;22.80;10.32;;;;;;;18.36;63.15;99405.22;5110016;28;20015;-74
2021/06/09 06:06:48;;;;;;;21.33;11.23;;;;;;;18.44;63.02;99409.75;5111535;28;20056;-74
2021/06/09 06:09:14;;;;;;;35.38;11.93;;;;;;;18.59;63.21;99410.72;5111321;28;20107;-74
2021/06/09 06:11:42;;;;;;;13.27;9.93;;;;;;;18.70;62.65;99412.78;5109879;28;20088;-71
2021/06/09 06:14:10;;;;;;;18.85;11.27;;;;;;;18.83;62.44;99413.31;5111278;28;20031;-72
2021/06/09 06:16:37;;;;;;;20.88;10.07;;;;;;;18.82;62.79;99412.50;5111603;28;20036;-78
2021/06/09 06:19:03;;;;;;;20.83;10.90;;;;;;;18.82;62.63;99406.81;5109699;28;20110;-78
2021/06/09 06:21:29;;;;;;;18.13;10.73;;;;;;;18.93;62.74;99410.56;5110074;28;20119;-71
2021/06/09 06:23:56;;;;;;;14.00;10.20;;;;;;;18.93;63.05;99404.09;5111250;28;20055;-73
2021/06/09 06:26:22;;;;;;;18.70;10.63;;;;;;;19.20;62.45;99406.72;5109448;28;20507;-72
2021/06/09 06:28:50;;;;;;;19.23;11.15;;;;;;;19.38;61.78;99406.81;5111097;28;20024;-73
2021/06/09 06:31:22;;;;;;;16.25;10.75;;;;;;;19.45;61.56;99406.88;5110832;28;20084;-75
2021/06/09 06:33:48;;;;;;;15.07;10.68;;;;;;;19.44;62.25;99399.56;5109747;28;20051;-76
2021/06/09 06:36:17;;;;;;;11.00;9.35;;;;;;;19.56;62.16;99391.94;5110994;28;20058;-77
2021/06/09 06:38:44;;;;;;;13.63;9.98;;;;;;;19.87;61.08;99398.09;5110643;28;20095;-71
2021/06/09 06:41:10;;;;;;;11.52;9.95;;;;;;;20.08;60.55;99396.59;5109526;28;20277;-73
2021/06/09 06:43:38;;;;;;;19.23;11.02;;;;;;;19.82;59.18;99401.34;5109525;28;20480;-77
2021/06/09 06:46:05;;;;;;;12.57;9.63;;;;;;;19.88;60.41;99382.69;5110595;28;20046;-71
2021/06/09 06:48:32;;;;;;;17.92;11.00;;;;;;;20.28;59.99;99391.34;5110285;28;20094;-78
2021/06/09 06:50:58;;;;;;;17.08;11.68;;;;;;;20.37;60.11;99382.41;5109088;28;20489;-72
2021/06/09 06:53:24;;;;;;;12.82;10.60;;;;;;;20.51;58.95;99376.75;5097723;28;20497;-77
2021/06/09 06:55:49;;;;;;;21.83;13.68;;;;;;;20.69;58.00;99378.78;5099400;28;20062;-75
2021/06/09 06:58:15;;;;;;;23.13;14.40;;;;;;;20.80;56.22;99373.91;5093950;28;20394;-72
2021/06/09 07:00:41;;;;;;;12.80;11.25;;;;;;;20.76;56.15;99376.75;5094541;28;20051;-78
2021/06/09 07:03:08;;;;;;;10.70;9.57;;;;;;;20.86;55.47;99377.97;5107550;28;20034;-77
2021/06/09 07:05:35;;;;;;;27.73;10.68;;;;;;;20.85;56.13;99376.34;5108921;28;20189;-79
2021/06/09 07:08:02;;;;;;;12.68;10.60;;;;;;;20.81;56.16;99375.56;5108092;28;20024;-76
2021/06/09 07:10:29;;;;;;;12.60;9.80;;;;;;;20.85;55.82;99381.25;5097778;28;20031;-81
2021/06/09 07:12:59;;;;;;;13.52;9.00;;;;;;;21.08;55.91;99372.25;5108619;28;20119;-78
2021/06/09 07:15:26;;;;;;;19.93;10.63;;;;;;;21.13;55.48;99366.16;5110176;28;20059;-71
2021/06/09 07:17:53;;;;;;;69.40;53.97;;;;;;;21.27;55.16;99373.03;5110404;28;20019;-71
2021/06/09 07:20:21;;;;;;;22.30;17.05;;;;;;;21.43;54.96;99369.75;5109132;28;20477;-71
2021/06/09 07:22:47;;;;;;;13.57;10.52;;;;;;;21.53;55.31;99373.75;5108948;28;20088;-70
2021/06/09 07:25:13;;;;;;;9.73;8.73;;;;;;;21.65;54.55;99376.13;5108969;28;20050;-80
2021/06/09 07:27:42;;;;;;;14.57;8.25;;;;;;;21.82;53.62;99379.34;5110240;28;20032;-79
2021/06/09 07:30:10;;;;;;;14.02;8.18;;;;;;;22.07;52.68;99375.53;5110205;28;20019;-71
2021/06/09 07:32:40;;;;;;;8.32;6.82;;;;;;;22.06;50.73;99371.88;5107888;28;20032;-70
2021/06/09 07:35:07;;;;;;;9.80;7.32;;;;;;;22.28;51.11;99381.09;5107013;28;20058;-77
2021/06/09 07:37:41;;;;;;;17.02;8.25;;;;;;;22.33;50.48;99367.66;5108300;28;20028;-70
2021/06/09 07:40:11;;;;;;;8.20;7.40;;;;;;;22.47;50.95;99369.56;5094117;28;20050;-70
2021/06/09 07:42:38;;;;;;;;;;;;;;;22.53;52.05;99360.16;5109399;28;20055;-72
2021/06/09 07:45:11;;;;;;;15.57;10.35;;;;;;;22.75;50.62;99371.38;5107991;28;20384;-72
2021/06/09 07:47:40;;;;;;;11.20;10.05;;;;;;;22.81;50.82;99369.72;5108538;28;20160;-72
2021/06/09 07:50:08;;;;;;;8.40;7.20;;;;;;;22.99;49.93;99365.88;5108766;28;20524;-72
2021/06/09 07:52:38;;;;;;;10.73;7.40;;;;;;;23.04;48.43;99364.59;5108872;28;20087;-71
2021/06/09 07:55:05;;;;;;;8.98;6.93;;;;;;;22.85;51.46;99361.09;5108715;28;20035;-73
2021/06/09 07:57:34;;;;;;;11.27;7.35;;;;;;;23.09;48.63;99372.69;5109892;28;20028;-72
2021/06/09 08:00:02;;;;;;;11.05;6.97;;;;;;;23.21;49.04;99359.94;5098504;28;20461;-72
2021/06/09 08:02:28;;;;;;;8.10;6.68;;;;;;;23.42;49.56;99361.75;5106911;28;20485;-72
2021/06/09 08:04:54;;;;;;;16.55;6.60;;;;;;;23.64;48.37;99368.00;5106545;28;20504;-75
2021/06/09 08:07:20;;;;;;;10.98;7.50;;;;;;;23.78;47.93;99372.72;5113599;28;20028;-72
2021/06/09 08:09:46;;;;;;;9.68;7.72;;;;;;;23.84;48.86;99365.31;5112282;28;20028;-75
2021/06/09 08:12:12;;;;;;;7.35;6.35;;;;;;;23.93;47.56;99370.47;5110252;28;20496;-71
2021/06/09 08:14:38;;;;;;;6.95;6.05;;;;;;;24.05;47.21;99374.03;5112292;28;20031;-74
2021/06/09 08:17:08;;;;;;;8.43;6.40;;;;;;;24.06;46.41;99370.72;5111942;28;20038;-70
2021/06/09 08:19:33;;;;;;;10.75;6.32;;;;;;;24.22;46.16;99366.44;5111915;27;20032;-70
2021/06/09 08:21:59;;;;;;;14.07;8.32;;;;;;;24.20;45.88;99357.50;5111682;28;20038;-71
2021/06/09 08:24:24;;;;;;;7.22;6.43;;;;;;;24.37;46.12;99358.41;5111659;28;20030;-71
2021/06/09 08:26:50;;;;;;;6.72;5.70;;;;;;;24.44;45.17;99366.88;5112203;28;20413;-74
2021/06/09 08:29:16;;;;;;;6.05;5.50;;;;;;;24.38;46.39;99360.84;5113241;28;20054;-74
2021/06/09 08:31:41;;;;;;;15.77;6.93;;;;;;;24.54;45.77;99357.34;5111687;28;20489;-75
2021/06/09 08:34:08;;;;;;;5.88;5.38;;;;;;;24.76;43.22;99354.09;5113027;28;20047;-71
2021/06/09 08:36:35;;;;;;;8.02;5.72;;;;;;;24.51;46.38;99361.06;5098940;28;20496;-71
2021/06/09 08:39:04;;;;;;;5.50;4.93;;;;;;;24.43;45.22;99362.41;5112660;28;20059;-77
2021/06/09 08:41:32;;;;;;;5.75;5.22;;;;;;;24.98;43.13;99348.03;5111754;28;20523;-73
2021/06/09 08:43:59;;;;;;;7.47;4.80;;;;;;;25.21;42.08;99349.22;5113094;28;20075;-73
2021/06/09 08:46:25;;;;;;;4.90;4.40;;;;;;;25.21;41.89;99347.16;5111470;28;20046;-73
2021/06/09 08:48:54;;;;;;;9.23;4.97;;;;;;;24.92;42.11;99349.75;5111654;28;20038;-77
2021/06/09 08:51:20;;;;;;;7.97;4.72;;;;;;;24.91;44.53;99351.81;5112975;28;20039;-78
2021/06/09 08:53:48;;;;;;;7.90;4.55;;;;;;;25.14;43.09;99340.78;5112831;27;20031;-72
2021/06/09 08:56:15;;;;;;;7.65;3.95;;;;;;;25.53;40.56;99336.34;5112965;28;20042;-77
2021/06/09 08:58:42;;;;;;;5.07;3.80;;;;;;;25.31;40.33;99335.94;5111216;28;20520;-77
2021/06/09 09:01:10;;;;;;;5.72;3.10;;;;;;;25.66;38.51;99345.06;5107202;28;20420;-77
2021/06/09 09:03:36;;;;;;;6.00;3.45;;;;;;;25.56;39.26;99340.38;5100203;28;20028;-75
2021/06/09 09:06:03;;;;;;;4.40;3.63;;;;;;;25.72;38.91;99337.56;5112187;28;20039;-75
2021/06/09 09:08:28;;;;;;;4.88;4.00;;;;;;;25.53;40.01;99338.41;5103905;28;20024;-75
2021/06/09 09:10:54;;;;;;;5.85;4.65;;;;;;;25.71;40.68;99330.22;5111012;28;20028;-75
2021/06/09 09:13:20;;;;;;;6.57;4.00;;;;;;;26.03;40.32;99327.88;5111385;28;20497;-74
2021/06/09 09:15:45;;;;;;;6.57;4.22;;;;;;;26.07;39.37;99328.59;5110521;28;20039;-77
2021/06/09 09:18:11;;;;;;;6.63;3.78;;;;;;;26.46;37.31;99321.13;5112183;28;20023;-73
2021/06/09 09:20:42;;;;;;;5.35;4.30;;;;;;;26.74;37.15;99324.50;5109274;28;20038;-75
2021/06/09 09:23:26;;;;;;;4.82;3.92;;;;;;;26.38;40.41;99318.91;5100508;28;20485;-75
2021/06/09 09:25:54;;;;;;;8.38;4.90;;;;;;;26.51;40.06;99327.56;5111681;28;20084;-71
2021/06/09 09:28:33;;;;;;;5.25;4.43;;;;;;;26.59;39.46;99321.19;5109620;28;20054;-71
2021/06/09 09:31:10;;;;;;;6.60;3.70;;;;;;;26.67;37.94;99318.16;5111796;28;20031;-73
2021/06/09 09:33:36;;;;;;;6.97;3.55;;;;;;;26.91;36.76;99313.03;5110452;28;20031;-72
2021/06/09 09:36:27;;;;;;;4.70;3.90;;;;;;;26.46;39.58;99326.03;5111260;28;20100;-72
2021/06/09 09:38:54;;;;;;;8.98;4.18;;;;;;;26.69;38.38;99322.19;5111590;27;20043;-79
2021/06/09 09:41:21;;;;;;;7.60;3.47;;;;;;;26.45;38.75;99318.69;5110167;28;20093;-72
2021/06/09 09:43:51;;;;;;;3.65;3.05;;;;;;;26.35;38.69;99312.78;5110042;28;20030;-83
2021/06/09 09:46:22;;;;;;;5.28;3.65;;;;;;;26.48;37.02;99315.75;5110298;28;20108;-73
2021/06/09 09:49:10;;;;;;;5.93;2.70;;;;;;;26.63;37.42;99310.44;5111286;28;20019;-73
2021/06/09 09:52:01;;;;;;;3.35;3.05;;;;;;;26.76;37.26;99316.25;5101640;28;20044;-73
2021/06/09 09:54:28;;;;;;;4.95;3.65;;;;;;;27.01;37.31;99309.03;5100022;28;20024;-77
2021/06/09 09:56:54;;;;;;;5.10;3.15;;;;;;;26.71;36.63;99308.19;5100864;28;20046;-71
2021/06/09 09:59:26;;;;;;;5.55;3.47;;;;;;;26.70;37.25;99295.13;5100495;28;20016;-70
2021/06/09 10:01:52;;;;;;;4.32;3.10;;;;;;;27.12;35.39;99300.16;5101145;28;20069;-71
2021/06/09 10:04:25;;;;;;;5.70;3.03;;;;;;;27.46;34.00;99297.94;5102720;28;20080;-72
2021/06/09 10:06:52;;;;;;;4.05;3.08;;;;;;;27.79;34.81;99297.78;5099396;28;20064;-72
2021/06/09 10:09:28;;;;;;;3.65;2.90;;;;;;;27.71;34.91;99297.22;5103648;28;20031;-76
2021/06/09 10:11:59;;;;;;;4.72;3.20;;;;;;;27.68;34.33;99297.31;5106076;28;20031;-77
2021/06/09 10:14:28;;;;;;;3.35;2.97;;;;;;;27.77;33.88;99294.56;5109878;28;20032;-78
2021/06/09 10:17:05;;;;;;;5.03;3.73;;;;;;;27.83;33.16;99297.69;5110264;28;20540;-77
2021/06/09 10:19:35;;;;;;;6.22;2.67;;;;;;;27.60;34.04;99291.00;5110585;28;20036;-71
2021/06/09 10:22:10;;;;;;;4.38;3.08;;;;;;;27.59;33.70;99295.91;5109760;28;20111;-76
2021/06/09 10:24:58;;;;;;;3.20;2.55;;;;;;;27.87;30.53;99287.69;5100941;28;20024;-72
2021/06/09 10:27:49;;;;;;;4.38;3.22;;;;;;;27.93;35.07;99285.00;5111527;28;20461;-71
2021/06/09 10:30:18;;;;;;;6.68;3.10;;;;;;;27.97;33.17;99279.97;5094422;28;20039;-72
2021/06/09 10:32:45;;;;;;;3.72;2.63;;;;;;;28.01;33.15;99280.66;5105700;28;20031;-72
2021/06/09 10:35:10;;;;;;;3.85;3.10;;;;;;;28.25;32.95;99282.41;5110791;28;20232;-72
2021/06/09 10:37:37;;;;;;;4.53;3.08;;;;;;;28.47;34.11;99284.53;5109294;28;20068;-72
2021/06/09 10:40:05;;;;;;;4.85;2.63;;;;;;;28.36;33.52;99277.09;5106316;28;20035;-72
2021/06/09 10:42:31;;;;;;;5.78;2.70;;;;;;;28.23;31.92;99284.91;5105712;28;20023;-72
2021/06/09 10:44:58;;;;;;;4.60;2.85;;;;;;;28.52;31.08;99281.88;5108258;28;20374;-73
2021/06/09 10:47:28;;;;;;;2.65;2.45;;;;;;;28.66;31.23;99279.75;5108812;28;20032;-72
2021/06/09 10:49:53;;;;;;;;;;;;;;;28.81;32.95;99275.16;5094082;28;20028;-72
2021/06/09 10:52:19;;;;;;;5.47;3.03;;;;;;;29.07;32.25;99266.41;5108691;28;19943;-73
2021/06/09 10:54:46;;;;;;;2.92;2.67;;;;;;;28.73;32.20;99268.81;5108700;28;20114;-72
2021/06/09 10:57:11;;;;;;;5.60;2.83;;;;;;;28.62;32.38;99258.94;5107244;28;20477;-72
2021/06/09 10:59:37;;;;;;;3.10;2.50;;;;;;;29.00;30.47;99255.13;5101780;28;20069;-73
2021/06/09 11:02:18;;;;;;;2.90;2.70;;;;;;;29.25;29.46;99248.44;5110736;28;20028;-72
2021/06/09 11:04:46;;;;;;;6.63;3.13;;;;;;;29.08;32.43;99249.91;5108771;28;20043;-72
2021/06/09 11:07:35;;;;;;;3.80;2.88;;;;;;;29.22;32.93;99246.50;5102618;28;20052;-72
2021/06/09 11:10:11;;;;;;;3.75;2.75;;;;;;;28.95;29.82;99242.16;5109042;28;20034;-72
2021/06/09 11:12:50;;;;;;;3.13;2.40;;;;;;;29.04;30.50;99229.09;5108967;28;20024;-72
2021/06/09 11:15:18;;;;;;;4.43;2.60;;;;;;;28.91;29.74;99235.72;5108323;28;20464;-72
2021/06/09 11:17:48;;;;;;;3.20;2.55;;;;;;;28.78;29.07;99232.09;5104941;28;20453;-72
2021/06/09 11:20:18;;;;;;;28.48;2.95;;;;;;;28.90;28.79;99224.69;5109340;28;20114;-71
2021/06/09 11:22:49;;;;;;;4.22;2.40;;;;;;;28.81;29.58;99228.25;5110619;28;20477;-72
2021/06/09 11:25:17;;;;;;;5.07;2.58;;;;;;;29.05;29.41;99227.81;5102040;28;20039;-71
2021/06/09 11:28:03;;;;;;;3.78;2.35;;;;;;;28.94;31.08;99226.16;5106304;28;20024;-75
2021/06/09 11:30:29;;;;;;;2.65;2.45;;;;;;;28.83;30.19;99234.38;5110528;28;20417;-72
2021/06/09 11:32:59;;;;;;;2.50;2.20;;;;;;;28.81;32.62;99226.22;5108901;28;20122;-72
2021/06/09 11:35:43;;;;;;;4.38;2.45;;;;;;;28.96;34.01;99215.00;5103099;28;20455;-72